Portada
METAR-TAF:

METAR-TAF

Aeroports :

Mackall Army Airfield

Camp Mackall, Carolina del Nord, Estats Units d'Amèrica

latitud: 35-02N, longitud: 079-30W, altitud: 115 m

Observació

L'informe es va fer fa 21 minuts, a les 00:56 UTC
Vent 3 kt del Sud
Temperatura 23°C
Humitat 100%
Pressió 1016 hPa
Visibilitat: 16.1 km
Escasses núvols a una alçada de 10000 ft

METAR: KHFF 110056Z AUTO 18003KT 10SM FEW100 23/23 A3000 RMK AO2 LTG DSNT S SLP172 P0001 T02340229 $

Hora: 21:17 (01:17 UTC)


TAF: manca

Observacions i pronòstics meteorològics de més de 4000 aeroports (METAR i TAF).

Les estacions disponibles són els punts grocs i vermells al mapa.

Posi el ratolí al punt desitjat per veure el nom de l'estació.

Feu clic per veure les observacions i els pronòstics meteorològics.

Per canviar el mapa: feu clic els botons verds amb una creu de color negre per apropar; al botó verd amb un guió per allunyar la imatge; o en les fletxes verdes per a mapes adjacents.


METAR-TAF: